セントジョンズ の空港の天気 - METARとTAF

セント・ジョンズ国際空港 ( CYYT / YYT ) - カナダ ニューファンドランド・ラブラドール州セントジョンズ
飛行場実況気象(Metar)
観測時間07/16 04:04 NDT (07/16 06:34 UTC)
風向・風速西南西 5m/s 瞬間風速9m/s
視程10km以上
天気現象弱いしゅう雨
少しの雲 雲底高度 270m
全天を覆う雲 雲底高度 3660m
気温18℃
湿度100%
気圧1018.6hPa
METARCYYT 160634Z 25010G17KT 15SM -SHRA FEW009 OVC120 18/18 A3007 RMK SF2AC6 ACC EMBD SLP186 DENSITY ALT 800FT
過去の天気等 Google飛行場航空写真 Wunderground天気予報

過去48時間のMETAR

飛行場予報(TAF)
発表時間: 7/16 04:06 NDT (7/16 06:36 UTC)
予報対象時間: 16日3時 NDT ~ 17日3時 NDT
風向・風速西南西 6m/s
視程10km以上
少しの雲 雲底高度 150m
全天を覆う雲 雲底高度 3660m
16日3時 NDT ~ 16日8時 NDT に一時的に
視程8050m
天気現象弱いしゅう雨 弱い霧雨 もや
全天を覆う雲 雲底高度 150m
16日3時 NDT から 確率 30% で
視程1210m
天気現象しゅう雨 弱い霧雨 もや
全天を覆う雲 雲底高度 90m
16日8時 NDT から
風向・風速南西 6m/s
視程10km以上
天気現象もや
少しの雲 雲底高度 150m
全天を覆う雲 雲底高度 300m
16日8時 NDT ~ 16日12時 NDT に一時的に
視程4830m
天気現象しゅう雨 弱い霧雨 もや
全天を覆う雲 雲底高度 150m
16日15時 NDT から
風向・風速南南西 8m/s
視程10km以上
天気現象弱い雨 もや
少しの雲 雲底高度 150m
全天を覆う雲 雲底高度 300m
16日15時 NDT ~ 17日24時 NDT に一時的に
視程4830m
天気現象しゅう雨 もや
全天を覆う雲 雲底高度 150m
17日0時 NDT から
風向・風速南 9m/s
視程10km以上
天気現象弱い雨 もや
全天を覆う雲 雲底高度 150m
17日0時 NDT ~ 17日3時 NDT に一時的に
視程3220m
天気現象しゅう雨 もや
全天を覆う雲 雲底高度 90m
TAF AMD CYYT 160636Z 1606/1706 24011KT P6SM FEW005 OVC120
TEMPO 1606/1611 5SM -SHRA -DZ BR OVC005
PROB30 1606/1611 3/4SM SHRA -DZ BR OVC003
FM161100 22012KT 6SM BR FEW005 OVC010
TEMPO 1611/1615 3SM SHRA -DZ BR OVC005
FM161800 20015KT 6SM -RA BR FEW005 OVC010
TEMPO 1618/1703 3SM SHRA BR OVC005
FM170300 19017KT 6SM -RA BR OVC005
TEMPO 1703/1706 2SM SHRA BR OVC003 RMK NXT FCST BY 161200Z